Atlantic, North Carolina
Current Conditions -  °F | °C
As of 5:56 PM on Saturday 25 Oct 2014 (Local Time) from KNBT Reporting Station
Clear Clear  
Wind Chill: 70°   Ceiling: Unl
Heat Index: 70°   Visibility: 7mi
Dew Point: 47°   Wind: 3mph
Humidity: 44%   Direction: 180°S
Pressure: 29.88"   Gusts: NA
Location:  34.89°N, 76.34°W
Report Text: KNBT 252156Z AUTO 18003KT 7SM CLR 21/08 A2988 RMK AO2 SLP124 T02110083 PNO
Loading
Personal Weather Stations






























Interactive Weather Map
Tropical Storm Tracking
New forecast layout! Learn more

10-Day Weather Forecast

Advertisements
Track Severe Weather on mobile